createdAt,value
2023-03-21T00:03:07.857Z,5.30
2023-03-21T00:08:11.162Z,4.55
2023-03-21T00:13:16.035Z,5.68
2023-03-21T00:18:21.312Z,4.07
2023-03-21T00:23:25.581Z,3.85
2023-03-21T00:28:29.071Z,5.50
2023-03-21T00:33:32.673Z,4.25
2023-03-21T00:38:36.482Z,5.22
2023-03-21T00:43:40.544Z,3.90
2023-03-21T00:48:43.624Z,4.25
2023-03-21T00:53:47.105Z,5.10
2023-03-21T00:58:51.458Z,4.30
2023-03-21T01:04:03.393Z,4.97
2023-03-21T01:09:08.755Z,6.30
2023-03-21T01:14:22.466Z,5.95
2023-03-21T01:19:44.685Z,8.45
2023-03-21T01:24:58.610Z,7.82
2023-03-21T01:30:11.262Z,8.63
2023-03-21T01:35:20.744Z,9.20
2023-03-21T01:40:26.498Z,9.63
2023-03-21T01:46:22.922Z,10.50
2023-03-21T01:52:06.591Z,9.48
2023-03-21T01:57:42.455Z,9.30
2023-03-21T02:02:52.790Z,8.45
2023-03-21T02:08:16.720Z,8.75
2023-03-21T02:13:20.463Z,7.70
2023-03-21T02:18:29.997Z,7.90
2023-03-21T02:24:05.573Z,7.90
2023-03-21T02:29:46.928Z,8.32
2023-03-21T02:34:56.114Z,8.82
2023-03-21T02:40:18.201Z,11.82
2023-03-21T02:45:44.455Z,10.02
2023-03-21T02:50:53.539Z,8.73
2023-03-21T02:55:58.086Z,11.48
2023-03-21T03:01:01.210Z,11.20
2023-03-21T03:06:24.530Z,11.07
2023-03-21T03:17:10.424Z,8.55
2023-03-21T03:22:26.152Z,8.02
2023-03-21T03:27:33.716Z,5.28
2023-03-21T03:32:47.324Z,6.30
2023-03-21T03:37:56.900Z,7.00
2023-03-21T03:43:09.384Z,9.80
2023-03-21T03:48:28.065Z,7.80
2023-03-21T03:53:41.353Z,5.45
2023-03-21T03:58:46.138Z,4.00
2023-03-21T04:04:03.713Z,5.22
2023-03-21T04:09:26.705Z,5.72
2023-03-21T04:14:44.196Z,4.57
2023-03-21T04:19:48.498Z,4.57
2023-03-21T04:24:51.770Z,5.70
2023-03-21T04:29:56.404Z,5.28
2023-03-21T04:35:13.623Z,5.47
2023-03-21T04:40:20.277Z,5.13
2023-03-21T04:45:24.080Z,6.30
2023-03-21T04:50:27.199Z,5.95
2023-03-21T04:55:32.033Z,6.53
2023-03-21T05:00:38.801Z,6.43
2023-03-21T05:05:41.900Z,5.30
2023-03-21T05:10:44.969Z,6.38
2023-03-21T05:15:48.193Z,5.45
2023-03-21T05:20:56.153Z,6.32
2023-03-21T05:26:00.034Z,7.60
2023-03-21T05:31:23.410Z,7.60
2023-03-21T05:36:34.604Z,13.10
2023-03-21T05:41:39.231Z,13.70
2023-03-21T05:46:43.727Z,15.57
2023-03-21T05:51:47.259Z,14.23
2023-03-21T05:56:50.844Z,9.82
2023-03-21T06:02:14.226Z,9.95
2023-03-21T06:07:17.603Z,9.43
2023-03-21T06:12:20.810Z,6.70
2023-03-21T06:17:44.236Z,7.53
2023-03-21T06:22:48.363Z,8.15
2023-03-21T06:27:51.604Z,9.38
2023-03-21T06:32:55.883Z,11.30
2023-03-21T06:37:59.438Z,9.55
2023-03-21T06:43:04.666Z,12.02
2023-03-21T06:48:09.343Z,11.88
2023-03-21T06:53:27.713Z,11.65
2023-03-21T06:58:52.330Z,10.70
2023-03-21T07:04:14.084Z,10.32
2023-03-21T07:09:18.534Z,10.93
2023-03-21T07:14:22.016Z,11.85
2023-03-21T07:19:25.272Z,11.98
2023-03-21T07:24:28.376Z,14.00
2023-03-21T07:29:31.448Z,13.82
2023-03-21T07:34:34.511Z,13.18
2023-03-21T07:39:39.714Z,15.52
2023-03-21T07:44:43.180Z,13.23
2023-03-21T07:49:46.385Z,13.50
2023-03-21T07:54:49.827Z,14.95
2023-03-21T07:59:52.899Z,15.35
2023-03-21T08:04:56.595Z,17.67
2023-03-21T08:10:00.175Z,16.73
2023-03-21T08:15:03.319Z,17.50
2023-03-21T08:20:09.068Z,18.75
2023-03-21T08:25:14.260Z,12.70
2023-03-21T08:30:22.331Z,12.30
2023-03-21T08:35:25.627Z,11.40
2023-03-21T08:40:28.662Z,9.77
2023-03-21T08:45:31.886Z,8.75
2023-03-21T08:50:34.907Z,9.07
2023-03-21T08:55:38.259Z,10.50
2023-03-21T09:00:41.465Z,9.50
2023-03-21T09:05:45.909Z,10.27
2023-03-21T09:10:49.355Z,8.30
2023-03-21T09:15:53.537Z,8.50
2023-03-21T09:20:56.850Z,7.22
2023-03-21T09:26:00.023Z,8.20
2023-03-21T09:31:04.345Z,7.65
2023-03-21T09:36:14.627Z,7.43
2023-03-21T09:41:40.452Z,7.13
2023-03-21T09:46:54.294Z,9.10
2023-03-21T09:52:01.023Z,8.70
2023-03-21T09:57:34.569Z,7.40
2023-03-21T10:03:01.988Z,8.55
2023-03-21T10:08:25.458Z,7.38
2023-03-21T10:13:33.032Z,8.27
2023-03-21T10:18:38.086Z,7.57
2023-03-21T10:23:41.211Z,8.23
2023-03-21T10:28:52.856Z,10.23
2023-03-21T10:34:02.995Z,8.05
2023-03-21T10:39:14.248Z,8.60
2023-03-21T10:44:21.202Z,11.93
2023-03-21T10:49:26.789Z,10.07
2023-03-21T11:00:00.374Z,8.20
2023-03-21T11:05:09.271Z,7.97
2023-03-21T11:10:57.152Z,7.97
2023-03-21T11:16:09.385Z,8.35
2023-03-21T11:21:14.589Z,8.68
2023-03-21T11:26:24.842Z,8.48
2023-03-21T11:31:46.195Z,7.57
2023-03-21T11:36:51.655Z,7.80
2023-03-21T11:41:54.770Z,12.77
2023-03-21T11:46:58.583Z,13.57
2023-03-21T11:52:23.618Z,11.68
2023-03-21T11:57:49.316Z,11.90
2023-03-21T12:03:13.822Z,10.63
2023-03-21T12:08:38.173Z,7.88
2023-03-21T12:13:53.219Z,7.20
2023-03-21T12:19:20.293Z,12.63
2023-03-21T12:24:37.881Z,17.77
2023-03-21T12:30:11.602Z,15.25
2023-03-21T12:35:25.932Z,14.65
2023-03-21T12:40:54.049Z,17.35
2023-03-21T12:46:14.896Z,15.05
2023-03-21T12:51:23.710Z,14.60
2023-03-21T12:56:34.682Z,15.45
2023-03-21T13:01:40.575Z,14.20
2023-03-21T13:06:46.881Z,11.65
2023-03-21T13:11:52.585Z,9.80
2023-03-21T13:17:04.506Z,9.90
2023-03-21T13:22:09.530Z,12.23
2023-03-21T13:27:39.799Z,18.80
2023-03-21T13:32:44.972Z,19.33
2023-03-21T13:38:02.519Z,16.55
2023-03-21T13:43:05.881Z,15.25
2023-03-21T13:48:28.760Z,13.50
2023-03-21T13:53:45.483Z,10.55
2023-03-21T13:58:48.485Z,9.75
2023-03-21T14:03:59.875Z,10.95
2023-03-21T14:09:04.335Z,9.98
2023-03-21T14:14:07.549Z,10.05
2023-03-21T14:19:12.278Z,7.85
2023-03-21T14:24:17.290Z,9.57
2023-03-21T14:29:35.614Z,9.70
2023-03-21T14:34:39.498Z,9.60
2023-03-21T14:39:42.803Z,9.95
2023-03-21T14:44:55.320Z,9.55
2023-03-21T14:50:01.398Z,9.32
2023-03-21T14:55:14.630Z,10.30
2023-03-21T15:00:31.642Z,11.85
2023-03-21T15:05:39.188Z,11.23
2023-03-21T15:11:05.951Z,11.88
2023-03-21T15:16:12.003Z,11.25
2023-03-21T15:21:23.953Z,11.77
2023-03-21T15:26:27.665Z,9.57
2023-03-21T15:31:36.742Z,8.52
2023-03-21T15:36:46.719Z,9.00
2023-03-21T15:42:23.868Z,11.95
2023-03-21T15:47:40.312Z,8.23
2023-03-21T15:52:43.761Z,8.88
2023-03-21T15:57:47.784Z,10.32
2023-03-21T16:02:58.576Z,12.57
2023-03-21T16:08:20.497Z,10.68
2023-03-21T16:13:23.577Z,12.00
2023-03-21T16:18:26.759Z,11.55
2023-03-21T16:23:30.249Z,16.05
2023-03-21T16:28:34.540Z,13.07
2023-03-21T16:33:37.568Z,14.07
2023-03-21T16:38:40.701Z,10.80
2023-03-21T16:43:44.347Z,12.20
2023-03-21T16:48:51.225Z,14.43
2023-03-21T16:53:54.541Z,15.07
2023-03-21T16:58:58.289Z,13.07
2023-03-21T17:04:01.389Z,13.60
2023-03-21T17:09:05.034Z,15.32
2023-03-21T17:14:10.211Z,15.57
2023-03-21T17:19:18.463Z,13.05
2023-03-21T17:24:21.808Z,12.35
2023-03-21T17:29:24.880Z,14.20
2023-03-21T17:34:27.890Z,14.82
2023-03-21T17:39:32.528Z,13.38
2023-03-21T17:44:35.816Z,14.65
2023-03-21T17:49:38.890Z,21.65
2023-03-21T17:54:41.925Z,21.58
2023-03-21T17:59:45.623Z,21.25
2023-03-21T18:04:48.695Z,21.50
2023-03-21T18:09:51.780Z,13.60
2023-03-21T18:14:54.864Z,11.88
2023-03-21T18:19:59.898Z,9.23
2023-03-21T18:25:03.749Z,8.88
2023-03-21T18:30:36.106Z,13.60
2023-03-21T18:35:34.129Z,11.70
2023-03-21T18:40:37.518Z,10.73
2023-03-21T18:45:41.761Z,13.40
2023-03-21T18:50:44.880Z,11.10
2023-03-21T18:55:50.116Z,13.10
2023-03-21T19:00:56.863Z,13.02
2023-03-21T19:06:01.069Z,13.65
2023-03-21T19:11:06.588Z,12.75
2023-03-21T19:16:11.497Z,9.25
2023-03-21T19:21:14.772Z,11.82
2023-03-21T19:26:17.869Z,9.93
2023-03-21T19:31:22.234Z,11.32
2023-03-21T19:36:26.568Z,11.85
2023-03-21T19:41:29.730Z,11.32
2023-03-21T19:46:33.081Z,10.18
2023-03-21T19:51:36.575Z,9.07
2023-03-21T19:56:47.024Z,8.65
2023-03-21T20:01:56.380Z,8.40
2023-03-21T20:07:01.690Z,9.13
2023-03-21T20:12:06.029Z,10.80
2023-03-21T20:17:09.136Z,8.48
2023-03-21T20:22:24.859Z,9.68
2023-03-21T20:27:32.443Z,9.35
2023-03-21T20:32:39.314Z,9.25
2023-03-21T20:37:46.529Z,9.98
2023-03-21T20:42:50.418Z,10.13
2023-03-21T20:47:53.667Z,11.52
2023-03-21T20:53:06.985Z,9.70
2023-03-21T20:58:36.712Z,10.57
2023-03-21T21:03:40.469Z,11.02
2023-03-21T21:08:44.157Z,13.07
2023-03-21T21:13:47.281Z,14.25
2023-03-21T21:18:50.362Z,14.93
2023-03-21T21:23:53.457Z,16.02
2023-03-21T21:28:58.434Z,13.60
2023-03-21T21:34:03.357Z,15.98
2023-03-21T21:39:07.697Z,16.40
2023-03-21T21:44:11.441Z,16.83
2023-03-21T21:49:14.634Z,16.20
2023-03-21T21:54:18.672Z,19.02
2023-03-21T21:59:22.516Z,16.83
2023-03-21T22:04:28.141Z,17.60
2023-03-21T22:09:31.590Z,17.85
2023-03-21T22:14:34.850Z,15.65
2023-03-21T22:19:40.216Z,18.42
2023-03-21T22:24:43.638Z,17.40
2023-03-21T22:29:46.757Z,18.10
2023-03-21T22:34:49.896Z,17.83
2023-03-21T22:39:52.981Z,17.65
2023-03-21T22:44:56.118Z,18.40
2023-03-21T22:49:59.407Z,16.27
2023-03-21T22:55:02.783Z,16.10
2023-03-21T23:00:13.807Z,17.15
2023-03-21T23:05:17.002Z,15.85
2023-03-21T23:10:20.580Z,12.95
2023-03-21T23:15:23.810Z,11.05
2023-03-21T23:20:26.856Z,9.80
2023-03-21T23:25:30.679Z,9.77
2023-03-21T23:30:33.716Z,7.63
2023-03-21T23:35:38.600Z,8.13
2023-03-21T23:40:42.035Z,7.55
2023-03-21T23:45:45.098Z,8.13
2023-03-21T23:50:48.681Z,6.55
2023-03-21T23:55:52.141Z,9.27
